createdAt,value
2022-09-24T00:00:50.894Z,6
2022-09-24T00:03:50.905Z,8
2022-09-24T00:09:50.925Z,8
2022-09-24T00:12:50.936Z,7
2022-09-24T00:15:50.941Z,7
2022-09-24T00:18:50.964Z,5
2022-09-24T00:21:50.968Z,6
2022-09-24T00:24:51.040Z,7
2022-09-24T00:27:50.995Z,4
2022-09-24T00:30:50.996Z,4
2022-09-24T00:33:50.978Z,5
2022-09-24T00:36:51.012Z,6
2022-09-24T00:39:50.985Z,5
2022-09-24T00:42:50.993Z,6
2022-09-24T00:45:51.018Z,6
2022-09-24T00:48:50.993Z,5
2022-09-24T00:51:51.031Z,3
2022-09-24T00:54:51.027Z,1
2022-09-24T00:57:51.044Z,4
2022-09-24T01:00:51.018Z,5
2022-09-24T01:03:51.038Z,5
2022-09-24T01:06:51.042Z,5
2022-09-24T01:09:51.027Z,6
2022-09-24T01:12:51.060Z,4
2022-09-24T01:15:51.059Z,5
2022-09-24T01:18:51.092Z,5
2022-09-24T01:21:51.060Z,5
2022-09-24T01:24:51.147Z,3
2022-09-24T01:27:51.089Z,3
2022-09-24T01:30:51.081Z,3
2022-09-24T01:33:51.096Z,8
2022-09-24T01:36:51.089Z,5
2022-09-24T01:39:51.094Z,3
2022-09-24T01:42:51.118Z,4
2022-09-24T01:45:51.115Z,4
2022-09-24T01:48:51.112Z,4
2022-09-24T01:51:51.126Z,4
2022-09-24T01:54:51.159Z,3
2022-09-24T01:57:51.134Z,4
2022-09-24T02:00:51.168Z,2
2022-09-24T02:03:51.153Z,4
2022-09-24T02:06:51.145Z,3
2022-09-24T02:09:51.157Z,2
2022-09-24T02:12:51.178Z,4
2022-09-24T02:15:51.155Z,3
2022-09-24T02:18:51.173Z,2
2022-09-24T02:21:51.180Z,5
2022-09-24T02:24:51.183Z,3
2022-09-24T02:27:51.188Z,4
2022-09-24T02:30:51.225Z,3
2022-09-24T02:33:51.214Z,3
2022-09-24T02:36:51.233Z,2
2022-09-24T02:39:51.203Z,2
2022-09-24T02:42:51.225Z,1
2022-09-24T02:45:51.233Z,2
2022-09-24T02:48:51.226Z,2
2022-09-24T02:51:51.234Z,2
2022-09-24T02:54:51.251Z,2
2022-09-24T02:57:51.253Z,2
2022-09-24T03:00:51.273Z,2
2022-09-24T03:03:51.267Z,2
2022-09-24T03:06:51.286Z,1
2022-09-24T03:09:51.272Z,3
2022-09-24T03:12:51.266Z,1
2022-09-24T03:15:51.303Z,3
2022-09-24T03:18:51.355Z,3
2022-09-24T03:21:51.311Z,2
2022-09-24T03:24:51.309Z,3
2022-09-24T03:27:51.337Z,2
2022-09-24T03:30:51.425Z,2
2022-09-24T03:33:51.343Z,1
2022-09-24T03:36:51.348Z,2
2022-09-24T03:39:51.339Z,3
2022-09-24T03:42:51.343Z,2
2022-09-24T03:45:51.356Z,3
2022-09-24T03:48:51.374Z,1
2022-09-24T03:51:51.370Z,3
2022-09-24T03:54:51.368Z,2
2022-09-24T03:57:51.372Z,1
2022-09-24T04:00:51.386Z,1
2022-09-24T04:03:51.390Z,1
2022-09-24T04:06:51.385Z,1
2022-09-24T04:09:51.404Z,1
2022-09-24T04:12:51.414Z,1
2022-09-24T04:15:51.403Z,0
2022-09-24T04:18:51.430Z,1
2022-09-24T04:21:51.483Z,1
2022-09-24T04:24:51.450Z,0
2022-09-24T04:27:51.449Z,1
2022-09-24T04:30:51.447Z,1
2022-09-24T04:33:51.457Z,3
2022-09-24T04:36:51.456Z,2
2022-09-24T04:39:51.475Z,1
2022-09-24T04:42:51.481Z,1
2022-09-24T04:45:51.488Z,1
2022-09-24T04:48:51.489Z,4
2022-09-24T04:51:51.481Z,1
2022-09-24T04:54:51.494Z,1
2022-09-24T04:57:51.514Z,1
2022-09-24T05:00:51.531Z,3
2022-09-24T05:03:51.511Z,0
2022-09-24T05:06:51.549Z,1
2022-09-24T05:09:51.528Z,1
2022-09-24T05:12:51.538Z,0
2022-09-24T05:15:51.545Z,1
2022-09-24T05:18:51.548Z,1
2022-09-24T05:21:51.563Z,1
2022-09-24T05:24:51.556Z,1
2022-09-24T05:27:51.560Z,3
2022-09-24T05:30:51.588Z,3
2022-09-24T05:33:51.580Z,1
2022-09-24T05:36:51.582Z,0
2022-09-24T05:39:51.592Z,1
2022-09-24T05:42:51.606Z,0
2022-09-24T05:45:51.604Z,0
2022-09-24T05:48:51.615Z,1
2022-09-24T05:51:51.601Z,1
2022-09-24T05:54:51.615Z,1
2022-09-24T05:57:51.617Z,2
2022-09-24T06:00:51.645Z,2
2022-09-24T06:03:51.672Z,1
2022-09-24T06:06:51.673Z,1
2022-09-24T06:09:51.637Z,1
2022-09-24T06:12:51.642Z,0
2022-09-24T06:15:51.652Z,4
2022-09-24T06:18:51.699Z,2
2022-09-24T06:21:51.675Z,2
2022-09-24T06:24:51.674Z,1
2022-09-24T06:27:51.670Z,3
2022-09-24T06:30:51.687Z,2
2022-09-24T06:33:51.706Z,1
2022-09-24T06:36:51.701Z,1
2022-09-24T06:39:51.706Z,1
2022-09-24T06:42:51.717Z,3
2022-09-24T06:45:51.726Z,2
2022-09-24T06:48:51.764Z,2
2022-09-24T06:51:51.721Z,1
2022-09-24T06:54:51.741Z,2
2022-09-24T06:57:51.740Z,2
2022-09-24T07:00:51.742Z,2
2022-09-24T07:03:51.812Z,3
2022-09-24T07:06:51.763Z,1
2022-09-24T07:09:51.765Z,1
2022-09-24T07:12:51.770Z,2
2022-09-24T07:15:51.784Z,2
2022-09-24T07:18:51.797Z,1
2022-09-24T07:21:51.798Z,2
2022-09-24T07:24:51.787Z,1
2022-09-24T07:27:51.801Z,2
2022-09-24T07:30:51.807Z,2
2022-09-24T07:33:51.818Z,1
2022-09-24T07:36:51.835Z,1
2022-09-24T07:39:51.823Z,2
2022-09-24T07:42:51.823Z,1
2022-09-24T07:45:51.854Z,1
2022-09-24T07:48:51.860Z,1
2022-09-24T07:51:51.862Z,2
2022-09-24T07:54:51.856Z,3
2022-09-24T07:57:51.865Z,1
2022-09-24T08:00:51.881Z,1
2022-09-24T08:03:51.894Z,4
2022-09-24T08:06:51.963Z,2
2022-09-24T08:09:52.022Z,4
2022-09-24T08:12:51.896Z,1
2022-09-24T08:15:51.921Z,1
2022-09-24T08:18:51.922Z,1
2022-09-24T08:21:51.976Z,0
2022-09-24T08:24:52.029Z,1
2022-09-24T08:27:51.929Z,1
2022-09-24T08:30:51.930Z,0
2022-09-24T08:33:52.019Z,1
2022-09-24T08:36:51.985Z,1
2022-09-24T08:39:51.977Z,0
2022-09-24T08:42:51.990Z,0
2022-09-24T08:45:51.978Z,0
2022-09-24T08:48:51.967Z,0
2022-09-24T08:51:52.061Z,1
2022-09-24T08:54:52.002Z,1
2022-09-24T08:57:51.999Z,1
2022-09-24T09:00:52.061Z,1
2022-09-24T09:03:52.025Z,1
2022-09-24T09:06:52.046Z,1
2022-09-24T09:09:52.027Z,0
2022-09-24T09:12:52.032Z,0
2022-09-24T09:15:52.049Z,0
2022-09-24T09:18:52.104Z,0
2022-09-24T09:21:52.038Z,0
2022-09-24T09:24:52.106Z,0
2022-09-24T09:27:52.134Z,0
2022-09-24T09:30:52.048Z,0
2022-09-24T09:33:52.054Z,0
2022-09-24T09:36:52.080Z,1
2022-09-24T09:39:52.087Z,0
2022-09-24T09:42:52.101Z,0
2022-09-24T09:45:52.094Z,0
2022-09-24T09:48:52.120Z,0
2022-09-24T09:51:52.090Z,0
2022-09-24T09:54:52.094Z,0
2022-09-24T09:57:52.107Z,0
2022-09-24T10:00:52.116Z,0
2022-09-24T10:03:52.121Z,0
2022-09-24T10:06:52.156Z,0
2022-09-24T10:09:52.122Z,0
2022-09-24T10:12:52.135Z,0
2022-09-24T10:15:52.143Z,1
2022-09-24T10:18:52.175Z,0
2022-09-24T10:21:52.200Z,0
2022-09-24T10:24:52.163Z,0
2022-09-24T10:27:52.166Z,0
2022-09-24T10:30:52.168Z,0
2022-09-24T10:33:52.166Z,0
2022-09-24T10:36:52.184Z,0
2022-09-24T10:39:52.180Z,0
2022-09-24T10:42:52.225Z,0
2022-09-24T10:45:52.201Z,0
2022-09-24T10:48:52.225Z,0
2022-09-24T10:51:52.221Z,0
2022-09-24T10:54:52.219Z,0
2022-09-24T10:57:52.225Z,0
2022-09-24T11:00:52.240Z,0
2022-09-24T11:03:52.231Z,0
2022-09-24T11:06:52.235Z,0
2022-09-24T11:09:52.243Z,0
2022-09-24T11:12:52.312Z,0
2022-09-24T11:15:52.257Z,0
2022-09-24T11:18:52.260Z,0
2022-09-24T11:21:52.290Z,0
2022-09-24T11:24:52.304Z,0
2022-09-24T11:27:52.272Z,0
2022-09-24T11:30:52.267Z,0
2022-09-24T11:33:52.274Z,0
2022-09-24T11:36:52.272Z,0
2022-09-24T11:39:52.290Z,0
2022-09-24T11:42:52.304Z,0
2022-09-24T11:45:52.320Z,0
2022-09-24T11:48:52.308Z,0
2022-09-24T11:51:52.307Z,0
2022-09-24T11:54:52.330Z,0
2022-09-24T11:57:52.319Z,0
2022-09-24T12:00:52.357Z,0
2022-09-24T12:03:52.359Z,0
2022-09-24T12:06:52.321Z,0
2022-09-24T12:09:52.340Z,0
2022-09-24T12:12:52.346Z,0
2022-09-24T12:15:52.330Z,0
2022-09-24T12:18:52.345Z,0
2022-09-24T12:21:52.344Z,0
2022-09-24T12:24:52.355Z,0
2022-09-24T12:27:52.397Z,0
2022-09-24T12:30:52.370Z,0
2022-09-24T12:33:52.416Z,0
2022-09-24T12:36:52.378Z,0
2022-09-24T12:39:52.432Z,0
2022-09-24T12:42:52.403Z,0
2022-09-24T12:45:52.380Z,0
2022-09-24T12:48:52.448Z,0
2022-09-24T12:51:52.415Z,0
2022-09-24T12:54:52.407Z,0
2022-09-24T12:57:52.472Z,0
2022-09-24T13:00:52.417Z,0
2022-09-24T13:03:52.411Z,0
2022-09-24T13:06:52.446Z,0
2022-09-24T13:09:52.425Z,0
2022-09-24T13:12:52.456Z,0
2022-09-24T13:15:52.443Z,0
2022-09-24T13:18:52.471Z,0
2022-09-24T13:21:52.454Z,0
2022-09-24T13:24:52.461Z,0
2022-09-24T13:27:52.470Z,0
2022-09-24T13:30:52.467Z,0
2022-09-24T13:33:52.472Z,0
2022-09-24T13:36:52.480Z,0
2022-09-24T13:39:52.481Z,0
2022-09-24T13:42:52.489Z,0
2022-09-24T13:45:52.563Z,0
2022-09-24T13:48:52.496Z,0
2022-09-24T13:51:52.503Z,0
2022-09-24T13:54:52.512Z,0
2022-09-24T13:57:52.513Z,0
2022-09-24T14:00:52.514Z,0
2022-09-24T14:03:52.531Z,0
2022-09-24T14:06:52.553Z,0
2022-09-24T14:09:52.532Z,0
2022-09-24T14:12:52.533Z,0
2022-09-24T14:15:52.561Z,0
2022-09-24T14:18:52.539Z,0
2022-09-24T14:21:52.546Z,0
2022-09-24T14:24:52.564Z,0
2022-09-24T14:27:52.559Z,0
2022-09-24T14:30:52.553Z,0
2022-09-24T14:33:52.579Z,0
2022-09-24T14:36:52.587Z,0
2022-09-24T14:39:52.574Z,0
2022-09-24T14:42:52.578Z,0
2022-09-24T14:45:52.585Z,0
2022-09-24T14:48:52.601Z,0
2022-09-24T14:51:52.636Z,0
2022-09-24T14:54:52.678Z,0
2022-09-24T14:57:52.619Z,0
2022-09-24T15:00:52.610Z,0
2022-09-24T15:03:52.626Z,0
2022-09-24T15:06:52.678Z,0
2022-09-24T15:09:52.643Z,0
2022-09-24T15:12:52.770Z,0
2022-09-24T15:15:52.648Z,0
2022-09-24T15:18:52.656Z,0
2022-09-24T15:21:52.655Z,0
2022-09-24T15:24:52.666Z,0
2022-09-24T15:27:52.686Z,0
2022-09-24T15:30:52.684Z,0
2022-09-24T15:33:52.674Z,0
2022-09-24T15:36:52.684Z,0
2022-09-24T15:39:52.701Z,0
2022-09-24T15:42:52.698Z,0
2022-09-24T15:45:52.703Z,0
2022-09-24T15:48:52.697Z,0
2022-09-24T15:51:52.698Z,0
2022-09-24T15:54:52.706Z,0
2022-09-24T15:57:52.715Z,0
2022-09-24T16:00:52.709Z,0
2022-09-24T16:03:52.731Z,0
2022-09-24T16:06:52.764Z,0
2022-09-24T16:09:52.731Z,0
2022-09-24T16:12:52.741Z,0
2022-09-24T16:15:52.748Z,0
2022-09-24T16:18:52.746Z,0
2022-09-24T16:21:52.739Z,0
2022-09-24T16:24:52.804Z,0
2022-09-24T16:27:52.770Z,0
2022-09-24T16:30:52.751Z,0
2022-09-24T16:33:52.776Z,0
2022-09-24T16:36:52.787Z,0
2022-09-24T16:39:52.792Z,0
2022-09-24T16:42:52.806Z,0
2022-09-24T16:45:52.811Z,0
2022-09-24T16:48:52.803Z,0
2022-09-24T16:51:52.819Z,0
2022-09-24T16:54:52.816Z,0
2022-09-24T16:57:52.810Z,0
2022-09-24T17:00:52.829Z,0
2022-09-24T17:03:52.840Z,0
2022-09-24T17:06:52.853Z,0
2022-09-24T17:09:52.841Z,0
2022-09-24T17:12:52.862Z,0
2022-09-24T17:15:52.829Z,0
2022-09-24T17:18:52.852Z,0
2022-09-24T17:21:52.867Z,0
2022-09-24T17:24:52.866Z,0
2022-09-24T17:27:52.865Z,0
2022-09-24T17:30:52.889Z,0
2022-09-24T17:33:52.913Z,0
2022-09-24T17:36:52.949Z,0
2022-09-24T17:39:52.874Z,1
2022-09-24T17:42:52.904Z,0
2022-09-24T17:45:53.009Z,1
2022-09-24T17:48:52.919Z,0
2022-09-24T17:51:52.958Z,0
2022-09-24T17:54:52.916Z,1
2022-09-24T17:57:52.940Z,1
2022-09-24T18:00:52.932Z,2
2022-09-24T18:03:53.027Z,0
2022-09-24T18:06:52.999Z,1
2022-09-24T18:09:52.980Z,0
2022-09-24T18:12:53.028Z,0
2022-09-24T18:15:52.987Z,2
2022-09-24T18:18:53.013Z,0
2022-09-24T18:21:52.974Z,1
2022-09-24T18:24:53.038Z,0
2022-09-24T18:27:53.136Z,2
2022-09-24T18:30:52.974Z,1
2022-09-24T18:33:52.989Z,1
2022-09-24T18:36:53.007Z,1
2022-09-24T18:39:53.019Z,1
2022-09-24T18:42:53.056Z,3
2022-09-24T18:45:53.010Z,1
2022-09-24T18:48:53.111Z,2
2022-09-24T18:51:53.028Z,1
2022-09-24T18:54:53.034Z,1
2022-09-24T18:57:53.022Z,1
2022-09-24T19:00:53.030Z,3
2022-09-24T19:03:53.066Z,1
2022-09-24T19:06:53.070Z,3
2022-09-24T19:09:53.067Z,5
2022-09-24T19:12:53.089Z,4
2022-09-24T19:15:53.076Z,2
2022-09-24T19:18:53.069Z,2
2022-09-24T19:21:53.077Z,2
2022-09-24T19:24:53.113Z,1
2022-09-24T19:27:53.092Z,2
2022-09-24T19:30:53.122Z,5
2022-09-24T19:33:53.109Z,5
2022-09-24T19:36:53.320Z,4
2022-09-24T19:39:53.124Z,3
2022-09-24T19:42:53.117Z,2
2022-09-24T19:45:53.153Z,2
2022-09-24T19:48:53.133Z,2
2022-09-24T19:51:53.134Z,3
2022-09-24T19:54:53.148Z,3
2022-09-24T19:57:53.161Z,3
2022-09-24T20:00:53.175Z,2
2022-09-24T20:03:53.164Z,2
2022-09-24T20:06:53.185Z,1
2022-09-24T20:09:53.176Z,3
2022-09-24T20:12:53.189Z,3
2022-09-24T20:15:53.182Z,4
2022-09-24T20:18:53.198Z,2
2022-09-24T20:21:53.201Z,2
2022-09-24T20:24:53.206Z,2
2022-09-24T20:27:53.223Z,2
2022-09-24T20:30:53.218Z,1
2022-09-24T20:33:53.343Z,2
2022-09-24T20:36:53.238Z,4
2022-09-24T20:39:53.357Z,3
2022-09-24T20:42:53.243Z,3
2022-09-24T20:45:53.251Z,3
2022-09-24T20:48:53.261Z,3
2022-09-24T20:51:53.266Z,3
2022-09-24T20:54:53.256Z,1
2022-09-24T20:57:53.311Z,3
2022-09-24T21:00:53.288Z,3
2022-09-24T21:03:53.311Z,2
2022-09-24T21:06:53.297Z,4
2022-09-24T21:09:53.340Z,3
2022-09-24T21:12:53.309Z,4
2022-09-24T21:15:53.317Z,3
2022-09-24T21:18:53.318Z,2
2022-09-24T21:21:53.323Z,4
2022-09-24T21:24:53.456Z,2
2022-09-24T21:27:53.344Z,3
2022-09-24T21:30:53.324Z,3
2022-09-24T21:33:53.357Z,4
2022-09-24T21:36:53.418Z,4
2022-09-24T21:39:53.365Z,2
2022-09-24T21:42:53.354Z,3
2022-09-24T21:45:53.361Z,2
2022-09-24T21:48:53.371Z,3
2022-09-24T21:51:53.389Z,2
2022-09-24T21:54:53.440Z,2
2022-09-24T21:57:53.410Z,3
2022-09-24T22:00:53.438Z,2
2022-09-24T22:03:53.414Z,4
2022-09-24T22:06:53.408Z,3
2022-09-24T22:09:53.411Z,6
2022-09-24T22:12:53.421Z,4
2022-09-24T22:15:53.436Z,1
2022-09-24T22:18:53.430Z,4
2022-09-24T22:21:53.547Z,3
2022-09-24T22:24:53.455Z,4
2022-09-24T22:27:53.453Z,4
2022-09-24T22:30:53.458Z,6
2022-09-24T22:33:53.462Z,5
2022-09-24T22:36:53.472Z,5
2022-09-24T22:39:53.491Z,4
2022-09-24T22:42:53.497Z,4
2022-09-24T22:45:53.522Z,5
2022-09-24T22:48:53.532Z,4
2022-09-24T22:51:53.489Z,4
2022-09-24T22:54:53.508Z,5
2022-09-24T22:57:53.502Z,6
2022-09-24T23:00:53.503Z,5
2022-09-24T23:03:53.539Z,5
2022-09-24T23:06:53.521Z,4
2022-09-24T23:09:53.535Z,5
2022-09-24T23:12:53.549Z,4
2022-09-24T23:15:53.535Z,4
2022-09-24T23:18:53.542Z,4
2022-09-24T23:21:53.545Z,3
2022-09-24T23:24:53.559Z,1
2022-09-24T23:27:53.574Z,3
2022-09-24T23:30:53.572Z,3
2022-09-24T23:33:53.587Z,2
2022-09-24T23:36:53.609Z,4
2022-09-24T23:39:53.591Z,2
2022-09-24T23:42:53.603Z,3
2022-09-24T23:45:53.597Z,5
2022-09-24T23:48:53.609Z,3
2022-09-24T23:51:53.632Z,4
2022-09-24T23:54:53.642Z,3
2022-09-24T23:57:53.654Z,3
